Time;durP1;ratioP1;P1;durP2;ratioP2;P2;SDS_P1;SDS_P2;PMS_P1;PMS_P2;Temp;Humidity;BMP_temperature;BMP_pressure;BME280_temperature;BME280_humidity;BME280_pressure;Samples;Min_cycle;Max_cycle;Signal;HPM_P1;HPM_P2
2022/07/24 00:01:41;;;;;;;7.53;3.50;;;;;;;;;;5055496;28;20025;-79
2022/07/24 00:04:07;;;;;;;9.93;3.55;;;;;;;;;;5054926;28;20363;-79
2022/07/24 00:06:34;;;;;;;7.90;3.63;;;;;;;;;;5052337;28;20095;-79
2022/07/24 00:09:00;;;;;;;5.35;3.60;;;;;;;;;;5053341;28;20052;-79
2022/07/24 00:11:26;;;;;;;9.75;3.47;;;;;;;;;;5055184;28;20017;-79
2022/07/24 00:13:52;;;;;;;6.30;3.10;;;;;;;;;;5058949;28;20028;-79
2022/07/24 00:16:18;;;;;;;6.78;3.30;;;;;;;;;;5058283;28;20021;-79
2022/07/24 00:18:44;;;;;;;5.78;2.88;;;;;;;;;;5062213;28;20051;-80
2022/07/24 00:21:10;;;;;;;8.68;3.45;;;;;;;;;;5066929;28;20086;-80
2022/07/24 00:23:37;;;;;;;7.13;3.85;;;;;;;;;;5060860;28;20033;-79
2022/07/24 00:26:03;;;;;;;9.57;4.00;;;;;;;;;;5058156;28;20470;-80
2022/07/24 00:28:29;;;;;;;7.88;3.70;;;;;;;;;;5058263;28;20745;-79
2022/07/24 00:30:55;;;;;;;10.27;3.85;;;;;;;;;;5059845;28;20059;-79
2022/07/24 00:33:20;;;;;;;9.02;3.55;;;;;;;;;;5059037;28;20029;-79
2022/07/24 00:35:46;;;;;;;6.68;3.42;;;;;;;;;;5057063;28;20025;-79
2022/07/24 00:38:12;;;;;;;7.82;3.20;;;;;;;;;;5055096;28;20024;-77
2022/07/24 00:40:38;;;;;;;7.28;3.85;;;;;;;;;;5068059;28;20017;-80
2022/07/24 00:43:05;;;;;;;9.25;3.70;;;;;;;;;;5080481;28;20037;-78
2022/07/24 00:45:31;;;;;;;9.55;4.25;;;;;;;;;;5079257;28;20013;-80
2022/07/24 00:47:57;;;;;;;7.65;4.28;;;;;;;;;;5080935;28;20020;-79
2022/07/24 00:50:24;;;;;;;8.05;4.10;;;;;;;;;;5080083;28;20073;-79
2022/07/24 00:52:50;;;;;;;10.60;4.30;;;;;;;;;;5080028;28;20021;-79
2022/07/24 00:55:16;;;;;;;10.07;4.40;;;;;;;;;;5077989;28;20064;-79
2022/07/24 00:57:45;;;;;;;9.25;3.78;;;;;;;;;;5059365;28;20489;-78
2022/07/24 01:00:12;;;;;;;7.38;4.13;;;;;;;;;;5056352;28;20017;-79
2022/07/24 01:02:41;;;;;;;8.63;4.60;;;;;;;;;;5057066;28;20025;-78
2022/07/24 01:05:08;;;;;;;8.70;4.25;;;;;;;;;;5057967;28;20025;-79
2022/07/24 01:07:34;;;;;;;9.98;4.70;;;;;;;;;;5059583;28;20020;-78
2022/07/24 01:10:00;;;;;;;9.00;4.63;;;;;;;;;;5060113;28;20048;-79
2022/07/24 01:12:26;;;;;;;8.43;4.00;;;;;;;;;;5058392;28;20059;-79
2022/07/24 01:14:52;;;;;;;7.55;4.40;;;;;;;;;;5057071;28;20029;-78
2022/07/24 01:17:19;;;;;;;9.40;4.20;;;;;;;;;;5063849;28;20043;-80
2022/07/24 01:19:46;;;;;;;9.55;4.22;;;;;;;;;;5057789;28;20385;-79
2022/07/24 01:22:11;;;;;;;8.32;3.80;;;;;;;;;;5055437;28;20480;-79
2022/07/24 01:24:37;;;;;;;8.85;3.92;;;;;;;;;;5061990;28;20025;-77
2022/07/24 01:27:03;;;;;;;7.50;4.07;;;;;;;;;;5062526;28;20480;-78
2022/07/24 01:29:29;;;;;;;7.90;3.83;;;;;;;;;;5064395;28;20100;-80
2022/07/24 01:31:55;;;;;;;7.55;3.58;;;;;;;;;;5056642;28;20056;-79
2022/07/24 01:34:21;;;;;;;7.95;3.83;;;;;;;;;;5063481;28;20029;-77
2022/07/24 01:36:47;;;;;;;6.95;3.70;;;;;;;;;;5058498;28;20484;-79
2022/07/24 01:39:13;;;;;;;6.93;3.95;;;;;;;;;;5055330;28;20100;-78
2022/07/24 01:41:39;;;;;;;6.95;3.90;;;;;;;;;;5053793;28;20033;-78
2022/07/24 01:44:05;;;;;;;8.15;3.50;;;;;;;;;;5053501;28;20079;-79
2022/07/24 01:46:31;;;;;;;6.32;3.13;;;;;;;;;;5063131;28;20032;-78
2022/07/24 01:48:57;;;;;;;6.30;3.78;;;;;;;;;;5055852;28;20025;-78
2022/07/24 01:51:23;;;;;;;9.80;4.07;;;;;;;;;;5055842;28;20025;-77
2022/07/24 01:53:49;;;;;;;6.80;3.70;;;;;;;;;;5057482;28;20040;-77
2022/07/24 01:56:15;;;;;;;6.28;3.58;;;;;;;;;;5055598;28;20401;-77
2022/07/24 01:58:41;;;;;;;6.57;3.45;;;;;;;;;;5053144;28;20494;-77
2022/07/24 02:01:07;;;;;;;6.13;3.40;;;;;;;;;;5054039;28;20020;-76
2022/07/24 02:03:33;;;;;;;10.77;3.55;;;;;;;;;;5053861;28;20035;-78
2022/07/24 02:05:59;;;;;;;5.57;3.35;;;;;;;;;;5053771;28;20104;-76
2022/07/24 02:08:25;;;;;;;9.43;3.67;;;;;;;;;;5061239;28;20513;-77
2022/07/24 02:10:51;;;;;;;4.25;3.03;;;;;;;;;;5059507;28;20416;-76
2022/07/24 02:13:17;;;;;;;5.78;3.25;;;;;;;;;;5055493;28;20478;-77
2022/07/24 02:15:43;;;;;;;8.52;3.70;;;;;;;;;;5056228;28;20097;-77
2022/07/24 02:18:09;;;;;;;8.88;3.40;;;;;;;;;;5056728;28;20513;-77
2022/07/24 02:20:35;;;;;;;5.43;3.40;;;;;;;;;;5056838;28;20492;-77
2022/07/24 02:23:01;;;;;;;5.55;3.13;;;;;;;;;;5058978;28;20104;-78
2022/07/24 02:25:27;;;;;;;6.80;3.63;;;;;;;;;;5054814;28;20029;-77
2022/07/24 02:27:53;;;;;;;6.82;3.58;;;;;;;;;;5053589;28;20021;-78
2022/07/24 02:30:20;;;;;;;5.05;3.30;;;;;;;;;;5054388;28;20029;-78
2022/07/24 02:32:46;;;;;;;7.07;3.30;;;;;;;;;;5056911;28;20025;-77
2022/07/24 02:35:12;;;;;;;6.40;3.30;;;;;;;;;;5054969;28;20470;-78
2022/07/24 02:37:39;;;;;;;6.22;3.80;;;;;;;;;;5055531;28;20033;-77
2022/07/24 02:40:06;;;;;;;6.75;4.10;;;;;;;;;;5054731;28;20033;-76
2022/07/24 02:42:32;;;;;;;5.72;3.88;;;;;;;;;;5053879;28;20097;-79
2022/07/24 02:44:58;;;;;;;6.68;3.42;;;;;;;;;;5055215;28;20057;-78
2022/07/24 02:47:24;;;;;;;6.95;3.80;;;;;;;;;;5055722;28;20035;-78
2022/07/24 02:49:49;;;;;;;8.40;3.78;;;;;;;;;;5062074;28;20029;-78
2022/07/24 02:52:15;;;;;;;6.15;3.38;;;;;;;;;;5062247;28;20024;-77
2022/07/24 02:54:41;;;;;;;7.85;3.55;;;;;;;;;;5064278;28;20033;-77
2022/07/24 02:57:07;;;;;;;6.82;4.05;;;;;;;;;;5061404;28;20035;-78
2022/07/24 02:59:33;;;;;;;6.03;3.60;;;;;;;;;;5056363;28;20024;-77
2022/07/24 03:01:59;;;;;;;7.93;3.85;;;;;;;;;;5053838;28;20037;-77
2022/07/24 03:04:25;;;;;;;7.40;3.78;;;;;;;;;;5054241;28;20048;-77
2022/07/24 03:06:51;;;;;;;5.85;3.22;;;;;;;;;;5052905;28;20382;-77
2022/07/24 03:09:17;;;;;;;6.82;4.07;;;;;;;;;;5054086;28;20029;-77
2022/07/24 03:11:43;;;;;;;10.18;4.10;;;;;;;;;;5056905;28;20020;-77
2022/07/24 03:14:09;;;;;;;8.10;4.40;;;;;;;;;;5068537;28;20021;-77
2022/07/24 03:16:35;;;;;;;11.65;4.53;;;;;;;;;;5070415;28;20043;-77
2022/07/24 03:19:01;;;;;;;9.43;5.05;;;;;;;;;;5068556;28;20036;-76
2022/07/24 03:21:27;;;;;;;9.07;5.05;;;;;;;;;;5076117;28;20025;-76
2022/07/24 03:23:53;;;;;;;11.02;5.18;;;;;;;;;;5075352;28;20021;-76
2022/07/24 03:26:19;;;;;;;9.57;4.95;;;;;;;;;;5073594;28;20085;-77
2022/07/24 03:28:45;;;;;;;13.80;5.07;;;;;;;;;;5076371;28;20021;-76
2022/07/24 03:31:10;;;;;;;9.13;4.75;;;;;;;;;;5076560;28;20033;-76
2022/07/24 03:33:36;;;;;;;8.23;4.97;;;;;;;;;;5060847;28;20025;-77
2022/07/24 03:36:03;;;;;;;12.23;4.93;;;;;;;;;;5056607;28;20059;-77
2022/07/24 03:38:29;;;;;;;10.32;5.10;;;;;;;;;;5055843;28;20517;-77
2022/07/24 03:40:55;;;;;;;10.32;5.28;;;;;;;;;;5057343;28;20032;-78
2022/07/24 03:43:21;;;;;;;9.55;4.72;;;;;;;;;;5058088;28;20036;-77
2022/07/24 03:45:47;;;;;;;6.65;4.57;;;;;;;;;;5053975;28;20060;-78
2022/07/24 03:48:13;;;;;;;11.05;4.57;;;;;;;;;;5053718;28;20021;-78
2022/07/24 03:50:39;;;;;;;8.35;4.63;;;;;;;;;;5055736;28;20060;-76
2022/07/24 03:53:05;;;;;;;8.95;4.50;;;;;;;;;;5058407;28;20052;-79
2022/07/24 03:55:31;;;;;;;11.70;4.70;;;;;;;;;;5052143;28;20032;-77
2022/07/24 03:57:56;;;;;;;9.32;4.90;;;;;;;;;;5053293;28;20029;-76
2022/07/24 04:00:23;;;;;;;8.30;4.70;;;;;;;;;;5052077;28;20068;-75
2022/07/24 04:02:49;;;;;;;10.48;4.93;;;;;;;;;;5052242;28;20060;-77
2022/07/24 04:05:15;;;;;;;9.05;5.05;;;;;;;;;;5052124;28;20028;-75
2022/07/24 04:07:41;;;;;;;7.60;5.10;;;;;;;;;;5052471;28;20108;-76
2022/07/24 04:10:07;;;;;;;9.38;4.93;;;;;;;;;;5053173;28;20017;-77
2022/07/24 04:12:34;;;;;;;9.40;5.20;;;;;;;;;;5052171;28;20044;-77
2022/07/24 04:15:00;;;;;;;9.98;5.60;;;;;;;;;;5057084;28;20028;-79
2022/07/24 04:17:26;;;;;;;12.13;5.78;;;;;;;;;;5064783;28;20089;-76
2022/07/24 04:19:52;;;;;;;10.80;5.00;;;;;;;;;;5077326;28;20049;-75
2022/07/24 04:22:18;;;;;;;9.93;5.97;;;;;;;;;;5065078;28;20041;-77
2022/07/24 04:24:44;;;;;;;12.75;5.45;;;;;;;;;;5053557;28;20037;-77
2022/07/24 04:27:10;;;;;;;10.85;5.78;;;;;;;;;;5060316;28;20032;-76
2022/07/24 04:29:36;;;;;;;10.90;5.70;;;;;;;;;;5060541;28;20024;-77
2022/07/24 04:32:02;;;;;;;10.48;5.93;;;;;;;;;;5061517;28;20070;-78
2022/07/24 04:34:27;;;;;;;12.02;5.80;;;;;;;;;;5060657;28;20017;-77
2022/07/24 04:36:53;;;;;;;13.75;6.07;;;;;;;;;;5060402;28;20025;-76
2022/07/24 04:39:19;;;;;;;12.30;5.70;;;;;;;;;;5061532;28;20033;-77
2022/07/24 04:41:45;;;;;;;11.43;5.85;;;;;;;;;;5060425;28;20083;-76
2022/07/24 04:44:11;;;;;;;11.27;5.88;;;;;;;;;;5060213;28;20032;-76
2022/07/24 04:46:37;;;;;;;9.30;5.35;;;;;;;;;;5061840;28;20033;-77
2022/07/24 04:49:03;;;;;;;10.75;5.82;;;;;;;;;;5062411;28;20039;-76
2022/07/24 04:51:29;;;;;;;11.27;5.90;;;;;;;;;;5063283;28;20029;-77
2022/07/24 04:53:55;;;;;;;7.93;5.28;;;;;;;;;;5057669;28;20029;-78
2022/07/24 04:56:21;;;;;;;14.95;5.32;;;;;;;;;;5054890;28;20052;-77
2022/07/24 04:58:48;;;;;;;10.00;5.25;;;;;;;;;;5055674;28;20025;-78
2022/07/24 05:01:14;;;;;;;12.20;5.07;;;;;;;;;;5057264;28;20086;-77
2022/07/24 05:03:40;;;;;;;12.65;4.95;;;;;;;;;;5055672;28;20070;-77
2022/07/24 05:06:07;;;;;;;7.97;4.35;;;;;;;;;;5056445;28;20029;-76
2022/07/24 05:08:33;;;;;;;8.20;4.13;;;;;;;;;;5056446;28;20189;-76
2022/07/24 05:10:58;;;;;;;9.05;3.92;;;;;;;;;;5055954;28;20127;-77
2022/07/24 05:13:24;;;;;;;8.80;3.53;;;;;;;;;;5054631;28;20029;-77
2022/07/24 05:15:50;;;;;;;8.82;4.25;;;;;;;;;;5053691;28;20025;-78
2022/07/24 05:18:16;;;;;;;8.27;3.60;;;;;;;;;;5055770;28;20560;-77
2022/07/24 05:20:42;;;;;;;11.57;4.00;;;;;;;;;;5054712;28;20036;-76
2022/07/24 05:23:09;;;;;;;8.48;3.22;;;;;;;;;;5054525;28;20068;-78
2022/07/24 05:25:35;;;;;;;13.60;4.07;;;;;;;;;;5079173;22;20045;-77
2022/07/24 05:28:01;;;;;;;7.97;3.28;;;;;;;;;;5060597;28;20086;-76
2022/07/24 05:30:27;;;;;;;4.47;3.20;;;;;;;;;;5077799;28;20033;-76
2022/07/24 05:32:53;;;;;;;9.70;3.53;;;;;;;;;;5059143;28;20484;-76
2022/07/24 05:35:19;;;;;;;6.10;2.78;;;;;;;;;;5055465;28;20029;-77
2022/07/24 05:37:45;;;;;;;11.30;3.15;;;;;;;;;;5056883;28;20095;-75
2022/07/24 05:40:11;;;;;;;8.90;2.65;;;;;;;;;;5054319;28;20024;-75
2022/07/24 05:42:37;;;;;;;9.45;3.60;;;;;;;;;;5054997;28;20037;-76
2022/07/24 05:45:04;;;;;;;6.28;2.72;;;;;;;;;;5054289;28;20025;-76
2022/07/24 05:47:35;;;;;;;5.03;2.30;;;;;;;;;;5055167;28;20035;-77
2022/07/24 05:50:01;;;;;;;8.85;2.22;;;;;;;;;;5055152;28;20432;-77
2022/07/24 05:52:27;;;;;;;8.48;2.95;;;;;;;;;;5055475;28;20025;-76
2022/07/24 05:54:53;;;;;;;8.27;2.78;;;;;;;;;;5055257;28;20028;-77
2022/07/24 05:57:19;;;;;;;6.50;2.42;;;;;;;;;;5055140;28;20129;-76
2022/07/24 05:59:45;;;;;;;8.13;2.58;;;;;;;;;;5055114;28;20385;-76
2022/07/24 06:02:11;;;;;;;10.57;3.80;;;;;;;;;;5053396;28;20397;-76
2022/07/24 06:04:41;;;;;;;8.75;2.60;;;;;;;;;;5053589;28;20078;-76
2022/07/24 06:07:07;;;;;;;4.35;2.08;;;;;;;;;;5054664;28;20553;-78
2022/07/24 06:09:33;;;;;;;8.23;2.17;;;;;;;;;;5057244;28;20354;-77
2022/07/24 06:11:59;;;;;;;7.55;3.25;;;;;;;;;;5055797;28;20111;-78
2022/07/24 06:14:25;;;;;;;8.48;3.72;;;;;;;;;;5056019;28;20072;-76
2022/07/24 06:16:51;;;;;;;10.73;3.22;;;;;;;;;;5057507;28;20477;-78
2022/07/24 06:19:17;;;;;;;7.38;2.45;;;;;;;;;;5055624;28;20390;-77
2022/07/24 06:21:43;;;;;;;3.28;1.85;;;;;;;;;;5056513;28;20033;-77
2022/07/24 06:24:09;;;;;;;3.75;2.33;;;;;;;;;;5055766;28;20037;-76
2022/07/24 06:26:35;;;;;;;10.57;1.98;;;;;;;;;;5058966;28;20025;-79
2022/07/24 06:29:01;;;;;;;10.38;2.30;;;;;;;;;;5061391;28;20053;-78
2022/07/24 06:31:27;;;;;;;8.02;1.98;;;;;;;;;;5059460;28;20075;-80
2022/07/24 06:33:53;;;;;;;5.45;2.03;;;;;;;;;;5060917;28;20477;-77
2022/07/24 06:36:19;;;;;;;5.15;2.75;;;;;;;;;;5067341;28;20066;-78
2022/07/24 06:38:45;;;;;;;9.82;2.67;;;;;;;;;;5071089;28;20052;-80
2022/07/24 06:41:11;;;;;;;6.22;2.80;;;;;;;;;;5064677;28;20025;-78
2022/07/24 06:43:37;;;;;;;4.95;2.30;;;;;;;;;;5070099;28;20021;-78
2022/07/24 06:46:03;;;;;;;8.02;2.70;;;;;;;;;;5068135;28;20104;-80
2022/07/24 06:48:30;;;;;;;10.50;2.38;;;;;;;;;;5067787;28;20251;-77
2022/07/24 06:50:56;;;;;;;7.30;2.58;;;;;;;;;;5057495;28;20013;-77
2022/07/24 06:53:22;;;;;;;6.28;2.15;;;;;;;;;;5057261;28;20036;-77
2022/07/24 06:55:48;;;;;;;6.75;2.58;;;;;;;;;;5057137;28;20029;-76
2022/07/24 06:58:14;;;;;;;5.68;2.30;;;;;;;;;;5060759;28;20052;-76
2022/07/24 07:00:40;;;;;;;7.10;2.50;;;;;;;;;;5067829;28;20037;-75
2022/07/24 07:03:06;;;;;;;7.20;2.40;;;;;;;;;;5067752;28;20115;-75
2022/07/24 07:05:32;;;;;;;5.22;2.13;;;;;;;;;;5064297;28;20079;-75
2022/07/24 07:07:58;;;;;;;5.32;2.00;;;;;;;;;;5056828;28;20053;-76
2022/07/24 07:10:24;;;;;;;8.13;1.85;;;;;;;;;;5054657;28;20021;-76
2022/07/24 07:12:50;;;;;;;9.90;2.53;;;;;;;;;;5054172;28;20082;-76
2022/07/24 07:15:16;;;;;;;7.13;2.25;;;;;;;;;;5058343;28;20041;-76
2022/07/24 07:17:42;;;;;;;6.10;2.13;;;;;;;;;;5054882;28;20025;-78
2022/07/24 07:20:09;;;;;;;7.68;2.35;;;;;;;;;;5054014;28;20412;-77
2022/07/24 07:22:35;;;;;;;4.43;2.10;;;;;;;;;;5054424;28;20093;-77
2022/07/24 07:25:01;;;;;;;5.15;1.83;;;;;;;;;;5054701;28;20029;-77
2022/07/24 07:27:27;;;;;;;4.90;2.00;;;;;;;;;;5052665;28;20429;-78
2022/07/24 07:29:53;;;;;;;4.88;2.20;;;;;;;;;;5053068;28;20021;-76
2022/07/24 07:32:19;;;;;;;12.23;2.70;;;;;;;;;;5054121;28;20040;-77
2022/07/24 07:34:45;;;;;;;7.53;2.53;;;;;;;;;;5055197;28;20017;-77
2022/07/24 07:37:11;;;;;;;6.55;2.47;;;;;;;;;;5053911;28;20121;-76
2022/07/24 07:39:37;;;;;;;8.57;2.67;;;;;;;;;;5054300;28;20021;-76
2022/07/24 07:42:03;;;;;;;7.18;2.15;;;;;;;;;;5054557;28;20082;-78
2022/07/24 07:44:29;;;;;;;11.70;2.80;;;;;;;;;;5055875;28;20060;-77
2022/07/24 07:46:55;;;;;;;5.15;2.20;;;;;;;;;;5054417;28;20097;-76
2022/07/24 07:49:21;;;;;;;4.63;2.10;;;;;;;;;;5055302;28;20072;-78
2022/07/24 07:51:51;;;;;;;7.80;2.13;;;;;;;;;;5054640;28;20022;-76
2022/07/24 07:54:17;;;;;;;6.25;2.47;;;;;;;;;;5054450;28;20025;-78
2022/07/24 07:56:42;;;;;;;6.00;2.33;;;;;;;;;;5054491;28;20108;-76
2022/07/24 07:59:09;;;;;;;5.85;2.58;;;;;;;;;;5054063;28;20029;-76
2022/07/24 08:01:34;;;;;;;5.93;2.25;;;;;;;;;;5055026;28;20458;-75
2022/07/24 08:04:00;;;;;;;7.97;2.53;;;;;;;;;;5053569;28;20029;-75
2022/07/24 08:06:27;;;;;;;5.95;2.30;;;;;;;;;;5053080;28;20032;-76
2022/07/24 08:08:53;;;;;;;8.80;2.03;;;;;;;;;;5055355;28;20093;-76
2022/07/24 08:11:19;;;;;;;5.95;2.33;;;;;;;;;;5056775;28;20029;-77
2022/07/24 08:13:45;;;;;;;8.05;3.08;;;;;;;;;;5055992;28;20029;-75
2022/07/24 08:16:11;;;;;;;6.30;2.53;;;;;;;;;;5057865;28;20474;-77
2022/07/24 08:18:37;;;;;;;7.28;2.30;;;;;;;;;;5058237;28;20036;-77
2022/07/24 08:21:03;;;;;;;9.88;2.47;;;;;;;;;;5056582;28;20029;-76
2022/07/24 08:23:29;;;;;;;7.07;2.50;;;;;;;;;;5058121;28;20029;-76
2022/07/24 08:25:55;;;;;;;5.72;2.50;;;;;;;;;;5055476;28;20021;-75
2022/07/24 08:28:22;;;;;;;4.70;2.00;;;;;;;;;;5057455;28;20021;-76
2022/07/24 08:30:48;;;;;;;8.70;2.80;;;;;;;;;;5054992;28;20492;-77
2022/07/24 08:33:14;;;;;;;6.95;2.28;;;;;;;;;;5059119;28;20486;-77
2022/07/24 08:35:40;;;;;;;12.45;2.35;;;;;;;;;;5058457;28;20025;-76
2022/07/24 08:38:06;;;;;;;5.13;1.98;;;;;;;;;;5057645;28;20043;-77
2022/07/24 08:40:42;;;;;;;6.05;2.30;;;;;;;;;;5060236;28;20029;-79
2022/07/24 08:43:08;;;;;;;10.10;2.65;;;;;;;;;;5058423;28;20108;-77
2022/07/24 08:45:39;;;;;;;6.57;2.88;;;;;;;;;;5056361;28;20029;-77
2022/07/24 08:48:07;;;;;;;6.50;2.70;;;;;;;;;;5061507;28;20025;-76
2022/07/24 08:50:34;;;;;;;6.57;2.50;;;;;;;;;;5063992;28;20017;-77
2022/07/24 08:53:03;;;;;;;3.85;2.03;;;;;;;;;;5060877;28;20032;-77
2022/07/24 08:55:29;;;;;;;7.63;2.35;;;;;;;;;;5064806;28;20031;-76
2022/07/24 08:57:59;;;;;;;9.05;2.63;;;;;;;;;;5060275;28;20021;-76
2022/07/24 09:00:26;;;;;;;5.45;2.85;;;;;;;;;;5062297;28;20036;-76
2022/07/24 09:02:52;;;;;;;8.52;2.50;;;;;;;;;;5062660;28;20044;-75
2022/07/24 09:05:18;;;;;;;5.90;3.00;;;;;;;;;;5057603;28;20017;-75
2022/07/24 09:07:44;;;;;;;9.85;2.42;;;;;;;;;;5064839;28;20020;-77
2022/07/24 09:10:15;;;;;;;9.27;2.80;;;;;;;;;;5060581;28;20405;-76
2022/07/24 09:12:45;;;;;;;8.80;2.40;;;;;;;;;;5061193;28;20523;-76
2022/07/24 09:15:12;;;;;;;7.82;2.53;;;;;;;;;;5057496;28;20048;-76
2022/07/24 09:17:47;;;;;;;8.05;3.17;;;;;;;;;;5055626;28;20114;-76
2022/07/24 09:20:13;;;;;;;7.28;2.65;;;;;;;;;;5056145;28;20043;-77
2022/07/24 09:22:40;;;;;;;5.25;2.42;;;;;;;;;;5058728;28;20021;-77
2022/07/24 09:25:06;;;;;;;4.57;2.20;;;;;;;;;;5059040;28;20028;-76
2022/07/24 09:27:33;;;;;;;4.65;2.15;;;;;;;;;;5054190;28;20021;-77
2022/07/24 09:30:00;;;;;;;5.75;2.88;;;;;;;;;;5056259;28;20028;-76
2022/07/24 09:32:26;;;;;;;5.65;2.10;;;;;;;;;;5058250;28;20028;-77
2022/07/24 09:34:53;;;;;;;3.55;2.08;;;;;;;;;;5057054;28;20093;-77
2022/07/24 09:37:19;;;;;;;5.97;2.80;;;;;;;;;;5055401;28;20021;-75
2022/07/24 09:39:45;;;;;;;5.57;2.58;;;;;;;;;;5056959;28;20175;-76
2022/07/24 09:42:11;;;;;;;6.85;3.38;;;;;;;;;;5055763;28;20057;-76
2022/07/24 09:44:38;;;;;;;6.05;3.03;;;;;;;;;;5057222;28;20025;-76
2022/07/24 09:47:05;;;;;;;6.85;3.33;;;;;;;;;;5059364;28;20021;-76
2022/07/24 09:49:32;;;;;;;7.32;3.03;;;;;;;;;;5063555;28;20024;-76
2022/07/24 09:52:10;;;;;;;7.57;3.10;;;;;;;;;;5058472;28;20025;-77
2022/07/24 09:54:41;;;;;;;11.05;3.20;;;;;;;;;;5060035;28;20048;-77
2022/07/24 09:57:20;;;;;;;8.13;3.08;;;;;;;;;;5054582;28;20100;-75
2022/07/24 09:59:51;;;;;;;7.70;3.35;;;;;;;;;;5055412;28;20078;-76
2022/07/24 10:02:18;;;;;;;7.97;3.20;;;;;;;;;;5056425;28;20025;-76
2022/07/24 10:04:45;;;;;;;5.97;3.22;;;;;;;;;;5056409;28;20036;-76
2022/07/24 10:07:12;;;;;;;7.63;3.38;;;;;;;;;;5055752;28;20383;-76
2022/07/24 10:09:41;;;;;;;9.05;3.50;;;;;;;;;;5054722;28;20083;-75
2022/07/24 10:12:09;;;;;;;5.95;3.67;;;;;;;;;;5064690;28;20041;-75
2022/07/24 10:14:35;;;;;;;8.57;3.47;;;;;;;;;;5070954;28;20073;-74
2022/07/24 10:17:11;;;;;;;9.10;3.20;;;;;;;;;;5064396;28;20141;-76
2022/07/24 10:19:39;;;;;;;5.88;3.30;;;;;;;;;;5053391;28;20147;-76
2022/07/24 10:22:09;;;;;;;7.57;3.67;;;;;;;;;;5054518;28;20044;-76
2022/07/24 10:24:35;;;;;;;8.18;3.25;;;;;;;;;;5054906;28;20117;-76
2022/07/24 10:27:05;;;;;;;11.05;3.10;;;;;;;;;;5053396;28;20437;-76
2022/07/24 10:29:34;;;;;;;11.02;4.32;;;;;;;;;;5053781;28;20043;-76
2022/07/24 10:32:00;;;;;;;6.55;3.60;;;;;;;;;;5052592;28;20021;-75
2022/07/24 10:34:46;;;;;;;7.88;3.17;;;;;;;;;;5053849;28;20478;-75
2022/07/24 10:37:27;;;;;;;8.80;3.35;;;;;;;;;;5052285;28;20028;-76
2022/07/24 10:40:08;;;;;;;9.10;3.50;;;;;;;;;;5044204;28;20040;-76
2022/07/24 10:42:54;;;;;;;11.10;3.33;;;;;;;;;;5051820;28;20100;-76
2022/07/24 10:45:22;;;;;;;7.18;3.45;;;;;;;;;;5051090;28;20021;-76
2022/07/24 10:47:48;;;;;;;7.13;3.45;;;;;;;;;;5053022;28;20377;-76
2022/07/24 10:50:15;;;;;;;10.00;3.80;;;;;;;;;;5052448;28;20167;-76
2022/07/24 10:52:41;;;;;;;10.55;4.50;;;;;;;;;;5052776;28;20053;-77
2022/07/24 10:55:26;;;;;;;7.72;4.47;;;;;;;;;;5050801;28;20099;-77
2022/07/24 10:57:57;;;;;;;9.77;4.45;;;;;;;;;;5050816;28;20047;-76
2022/07/24 11:00:26;;;;;;;7.35;4.32;;;;;;;;;;5052680;28;20039;-77
2022/07/24 11:02:56;;;;;;;11.77;4.72;;;;;;;;;;5049828;28;20021;-78
2022/07/24 11:05:26;;;;;;;8.57;4.13;;;;;;;;;;5050533;28;20020;-76
2022/07/24 11:08:10;;;;;;;12.98;7.57;;;;;;;;;;5052867;28;20048;-77
2022/07/24 11:10:46;;;;;;;11.18;4.63;;;;;;;;;;5054819;28;20074;-76
2022/07/24 11:13:31;;;;;;;7.60;3.80;;;;;;;;;;5054004;28;20020;-76
2022/07/24 11:15:57;;;;;;;;;;;;;;;;;;5051702;28;20184;-77
2022/07/24 11:18:23;;;;;;;13.50;7.72;;;;;;;;;;5051220;28;20171;-76
2022/07/24 11:20:49;;;;;;;7.18;4.10;;;;;;;;;;5051038;28;20033;-77
2022/07/24 11:23:21;;;;;;;6.65;3.85;;;;;;;;;;5052877;28;20033;-76
2022/07/24 11:25:48;;;;;;;6.80;3.95;;;;;;;;;;5053271;28;20029;-76
2022/07/24 11:28:14;;;;;;;11.63;4.60;;;;;;;;;;5070951;28;20024;-77
2022/07/24 11:30:44;;;;;;;9.68;4.30;;;;;;;;;;5055317;28;20119;-77
2022/07/24 11:33:17;;;;;;;8.82;4.53;;;;;;;;;;5053514;28;20024;-76
2022/07/24 11:35:43;;;;;;;7.95;4.10;;;;;;;;;;5053493;28;20045;-78
2022/07/24 11:38:09;;;;;;;6.47;3.88;;;;;;;;;;5052735;28;20294;-79
2022/07/24 11:40:36;;;;;;;9.23;4.20;;;;;;;;;;5052341;28;20021;-77
2022/07/24 11:43:05;;;;;;;13.95;4.57;;;;;;;;;;5052873;28;20502;-76
2022/07/24 11:45:31;;;;;;;8.35;3.88;;;;;;;;;;5056587;28;20045;-77
2022/07/24 11:47:57;;;;;;;4.80;3.70;;;;;;;;;;5056096;28;20099;-77
2022/07/24 11:50:25;;;;;;;8.48;4.40;;;;;;;;;;5051830;28;20013;-76
2022/07/24 11:52:51;;;;;;;7.55;4.00;;;;;;;;;;5053399;28;20385;-77
2022/07/24 11:55:21;;;;;;;9.15;4.10;;;;;;;;;;5051543;28;20032;-76
2022/07/24 11:57:49;;;;;;;11.95;4.60;;;;;;;;;;5051594;28;20029;-75
2022/07/24 12:00:17;;;;;;;9.68;4.43;;;;;;;;;;5052080;28;20066;-76
2022/07/24 12:02:44;;;;;;;8.75;4.53;;;;;;;;;;5054049;28;20025;-75
2022/07/24 12:05:10;;;;;;;13.15;4.22;;;;;;;;;;5053290;28;20021;-75
2022/07/24 12:07:36;;;;;;;7.95;3.90;;;;;;;;;;5057340;28;20028;-75
2022/07/24 12:10:02;;;;;;;6.43;4.47;;;;;;;;;;5057595;28;20073;-75
2022/07/24 12:12:32;;;;;;;7.97;4.05;;;;;;;;;;5057634;28;20107;-76
2022/07/24 12:15:04;;;;;;;11.60;4.40;;;;;;;;;;5058396;28;20037;-77
2022/07/24 12:17:31;;;;;;;7.80;3.85;;;;;;;;;;5057580;28;20099;-77
2022/07/24 12:19:57;;;;;;;11.73;4.32;;;;;;;;;;5056667;28;20025;-76
2022/07/24 12:22:25;;;;;;;6.70;4.10;;;;;;;;;;5063534;28;20031;-77
2022/07/24 12:24:51;;;;;;;6.90;4.20;;;;;;;;;;5064899;28;20032;-76
2022/07/24 12:27:37;;;;;;;10.38;4.55;;;;;;;;;;5056605;28;20032;-77
2022/07/24 12:30:05;;;;;;;12.52;4.53;;;;;;;;;;5057079;28;20021;-77
2022/07/24 12:32:31;;;;;;;8.45;4.43;;;;;;;;;;5056781;28;20021;-75
2022/07/24 12:34:57;;;;;;;4.03;3.40;;;;;;;;;;5056709;28;20017;-76
2022/07/24 12:37:23;;;;;;;9.90;4.55;;;;;;;;;;5057189;28;20025;-78
2022/07/24 12:39:50;;;;;;;6.53;4.28;;;;;;;;;;5066209;28;20073;-75
2022/07/24 12:42:17;;;;;;;8.13;4.65;;;;;;;;;;5070870;28;20017;-74
2022/07/24 12:44:44;;;;;;;9.90;4.60;;;;;;;;;;5059557;28;20032;-75
2022/07/24 12:47:10;;;;;;;7.10;4.40;;;;;;;;;;5057037;28;20442;-77
2022/07/24 12:49:41;;;;;;;6.57;4.28;;;;;;;;;;5057668;28;20036;-77
2022/07/24 12:52:18;;;;;;;9.07;4.13;;;;;;;;;;5056778;28;20038;-77
2022/07/24 12:54:46;;;;;;;9.23;4.32;;;;;;;;;;5057368;28;20025;-77
2022/07/24 12:57:13;;;;;;;11.52;4.15;;;;;;;;;;5057035;28;20028;-76
2022/07/24 12:59:40;;;;;;;7.45;4.50;;;;;;;;;;5056811;28;20032;-76
2022/07/24 13:02:07;;;;;;;9.55;4.65;;;;;;;;;;5057412;28;20402;-76
2022/07/24 13:04:40;;;;;;;6.63;3.80;;;;;;;;;;5056120;28;20048;-77
2022/07/24 13:07:07;;;;;;;5.50;3.95;;;;;;;;;;5056780;28;20021;-76
2022/07/24 13:09:34;;;;;;;12.27;4.10;;;;;;;;;;5057431;28;20017;-77
2022/07/24 13:12:00;;;;;;;8.73;4.25;;;;;;;;;;5055045;28;20029;-75
2022/07/24 13:14:28;;;;;;;10.88;4.10;;;;;;;;;;5059535;28;20032;-77
2022/07/24 13:16:54;;;;;;;12.13;4.00;;;;;;;;;;5059794;28;20024;-76
2022/07/24 13:19:21;;;;;;;7.32;3.80;;;;;;;;;;5059408;28;20057;-77
2022/07/24 13:21:47;;;;;;;7.60;4.32;;;;;;;;;;5061821;28;20021;-76
2022/07/24 13:24:14;;;;;;;8.73;4.28;;;;;;;;;;5060304;28;20025;-76
2022/07/24 13:26:41;;;;;;;9.35;4.05;;;;;;;;;;5059463;28;20036;-76
2022/07/24 13:29:07;;;;;;;9.60;4.13;;;;;;;;;;5061515;28;20021;-77
2022/07/24 13:31:33;;;;;;;10.02;4.18;;;;;;;;;;5062588;28;20100;-77
2022/07/24 13:33:59;;;;;;;10.80;4.43;;;;;;;;;;5056268;28;20075;-76
2022/07/24 13:36:25;;;;;;;9.25;3.90;;;;;;;;;;5055342;28;20032;-77
2022/07/24 13:38:51;;;;;;;7.80;4.38;;;;;;;;;;5056016;28;20068;-78
2022/07/24 13:41:18;;;;;;;8.50;4.28;;;;;;;;;;5056546;28;20517;-76
2022/07/24 13:43:44;;;;;;;8.82;4.32;;;;;;;;;;5056525;28;20017;-77
2022/07/24 13:46:11;;;;;;;9.38;4.10;;;;;;;;;;5055337;28;20140;-78
2022/07/24 13:48:37;;;;;;;6.55;4.07;;;;;;;;;;5059521;28;20067;-77
2022/07/24 13:51:03;;;;;;;13.43;4.07;;;;;;;;;;5057014;28;20096;-77
2022/07/24 13:53:28;;;;;;;7.50;4.25;;;;;;;;;;5057718;28;20119;-77
2022/07/24 13:55:54;;;;;;;12.95;4.07;;;;;;;;;;5056859;28;20373;-76
2022/07/24 13:58:20;;;;;;;12.57;4.03;;;;;;;;;;5057339;28;20029;-76
2022/07/24 14:00:46;;;;;;;37.70;6.28;;;;;;;;;;5056565;28;20036;-76
2022/07/24 14:03:12;;;;;;;28.17;4.65;;;;;;;;;;5055824;28;20061;-77
2022/07/24 14:05:38;;;;;;;6.53;4.20;;;;;;;;;;5056753;28;20048;-76
2022/07/24 14:08:04;;;;;;;10.88;3.53;;;;;;;;;;5056475;28;20032;-76
2022/07/24 14:10:30;;;;;;;20.85;4.82;;;;;;;;;;5059528;28;20026;-77
2022/07/24 14:12:56;;;;;;;8.50;4.15;;;;;;;;;;5061017;28;20028;-77
2022/07/24 14:15:22;;;;;;;10.20;4.28;;;;;;;;;;5060262;28;20127;-75
2022/07/24 14:17:48;;;;;;;8.38;3.78;;;;;;;;;;5056999;28;20064;-77
2022/07/24 14:20:15;;;;;;;21.52;4.97;;;;;;;;;;5057013;28;20029;-77
2022/07/24 14:22:42;;;;;;;6.75;3.75;;;;;;;;;;5056426;28;20032;-76
2022/07/24 14:25:09;;;;;;;8.10;4.13;;;;;;;;;;5057317;28;20024;-76
2022/07/24 14:27:35;;;;;;;6.22;3.63;;;;;;;;;;5058243;28;20159;-78
2022/07/24 14:30:01;;;;;;;8.15;4.28;;;;;;;;;;5056986;28;20025;-76
2022/07/24 14:32:27;;;;;;;7.22;3.60;;;;;;;;;;5057683;28;20106;-77
2022/07/24 14:34:53;;;;;;;11.50;3.88;;;;;;;;;;5062771;28;20025;-76
2022/07/24 14:37:19;;;;;;;6.45;3.72;;;;;;;;;;5059201;28;20105;-77
2022/07/24 14:39:45;;;;;;;6.47;3.80;;;;;;;;;;5057314;28;20064;-77